Crescent Lake, Oregon
Current Conditions -  °F | °C
As of 10:35 AM on Wednesday 26 Nov 2014 (Local Time) from KBDN Reporting Station
Clear Clear  
Wind Chill: 43°   Ceiling: Unl
Heat Index: 46°   Visibility: 10mi
Dew Point: 37°   Wind: 7mph
Humidity: 71%   Direction: 200°SSW
Pressure: 30.24"   Gusts: NA
Location:  43.51°N, 121.97°W
Report Text: KBDN 261835Z AUTO 20006KT 10SM CLR 08/03 A3024 RMK AO2
Loading
Personal Weather Stations






























Interactive Weather Map New forecast layout! Learn more

10-Day Weather Forecast

Advertisements
Track Severe Weather on mobile